createdAt,value
2022-07-26T00:01:16.316Z,22.65
2022-07-26T00:03:42.844Z,22.82
2022-07-26T00:06:09.628Z,22.74
2022-07-26T00:08:36.191Z,22.48
2022-07-26T00:11:07.251Z,22.44
2022-07-26T00:13:34.637Z,22.50
2022-07-26T00:16:01.416Z,22.43
2022-07-26T00:18:27.976Z,22.52
2022-07-26T00:20:55.536Z,22.55
2022-07-26T00:23:22.363Z,22.52
2022-07-26T00:25:48.830Z,22.31
2022-07-26T00:28:15.321Z,22.39
2022-07-26T00:30:42.227Z,22.40
2022-07-26T00:33:08.811Z,22.42
2022-07-26T00:35:35.441Z,22.36
2022-07-26T00:38:01.872Z,22.23
2022-07-26T00:40:28.390Z,22.17
2022-07-26T00:42:55.018Z,22.10
2022-07-26T00:45:21.573Z,22.07
2022-07-26T00:47:49.480Z,22.05
2022-07-26T00:50:18.022Z,22.17
2022-07-26T00:52:50.227Z,22.09
2022-07-26T00:55:17.631Z,21.83
2022-07-26T00:57:44.556Z,21.84
2022-07-26T01:00:15.679Z,21.93
2022-07-26T01:02:42.619Z,21.90
2022-07-26T01:05:09.463Z,21.74
2022-07-26T01:07:38.281Z,21.63
2022-07-26T01:10:08.699Z,21.81
2022-07-26T01:12:35.215Z,21.60
2022-07-26T01:15:01.746Z,21.75
2022-07-26T01:17:28.379Z,21.64
2022-07-26T01:19:54.895Z,21.53
2022-07-26T01:22:21.798Z,21.52
2022-07-26T01:24:49.667Z,21.40
2022-07-26T01:27:16.390Z,21.43
2022-07-26T01:29:42.911Z,21.36
2022-07-26T01:32:09.574Z,21.12
2022-07-26T01:34:36.084Z,21.25
2022-07-26T01:37:02.928Z,21.15
2022-07-26T01:39:29.442Z,21.11
2022-07-26T01:41:56.963Z,21.10
2022-07-26T01:44:23.744Z,21.12
2022-07-26T01:46:50.402Z,21.14
2022-07-26T01:49:17.141Z,21.13
2022-07-26T01:51:43.681Z,21.24
2022-07-26T01:54:10.570Z,21.27
2022-07-26T01:56:37.622Z,21.07
2022-07-26T01:59:04.647Z,21.12
2022-07-26T02:01:38.424Z,21.05
2022-07-26T02:04:07.539Z,20.97
2022-07-26T02:06:34.433Z,21.01
2022-07-26T02:09:01.103Z,20.95
2022-07-26T02:11:28.643Z,20.95
2022-07-26T02:13:55.115Z,20.99
2022-07-26T02:16:21.668Z,21.01
2022-07-26T02:18:48.353Z,20.89
2022-07-26T02:21:14.815Z,20.90
2022-07-26T02:23:41.863Z,20.78
2022-07-26T02:26:08.872Z,20.80
2022-07-26T02:28:35.329Z,20.80
2022-07-26T02:31:01.902Z,20.73
2022-07-26T02:33:28.694Z,20.60
2022-07-26T02:35:55.258Z,20.74
2022-07-26T02:38:21.763Z,20.80
2022-07-26T02:40:50.568Z,20.71
2022-07-26T02:43:17.234Z,20.53
2022-07-26T02:45:43.729Z,20.55
2022-07-26T02:48:10.553Z,20.40
2022-07-26T02:50:37.054Z,20.46
2022-07-26T02:53:03.628Z,20.36
2022-07-26T02:55:30.462Z,20.42
2022-07-26T02:57:56.921Z,20.49
2022-07-26T03:00:28.316Z,20.45
2022-07-26T03:02:54.964Z,20.52
2022-07-26T03:05:21.798Z,20.45
2022-07-26T03:07:48.556Z,20.48
2022-07-26T03:10:15.215Z,20.38
2022-07-26T03:12:41.992Z,20.46
2022-07-26T03:15:09.305Z,20.17
2022-07-26T03:17:35.957Z,20.23
2022-07-26T03:20:02.885Z,20.15
2022-07-26T03:22:29.384Z,20.22
2022-07-26T03:24:56.194Z,20.08
2022-07-26T03:27:22.701Z,19.99
2022-07-26T03:29:49.269Z,19.96
2022-07-26T03:32:15.734Z,19.98
2022-07-26T03:34:42.224Z,19.89
2022-07-26T03:37:08.661Z,19.98
2022-07-26T03:39:35.632Z,19.78
2022-07-26T03:42:02.094Z,19.97
2022-07-26T03:44:28.519Z,19.89
2022-07-26T03:46:55.715Z,19.84
2022-07-26T03:49:22.322Z,19.90
2022-07-26T03:51:48.830Z,19.79
2022-07-26T03:54:15.294Z,19.88
2022-07-26T03:56:41.799Z,19.60
2022-07-26T03:59:10.262Z,19.67
2022-07-26T04:01:44.111Z,19.58
2022-07-26T04:04:12.606Z,19.58
2022-07-26T04:06:39.959Z,19.56
2022-07-26T04:09:07.353Z,19.57
2022-07-26T04:11:35.301Z,19.67
2022-07-26T04:14:02.158Z,19.60
2022-07-26T04:16:28.720Z,19.42
2022-07-26T04:18:55.277Z,19.47
2022-07-26T04:21:22.274Z,19.23
2022-07-26T04:23:51.326Z,19.11
2022-07-26T04:26:18.976Z,19.23
2022-07-26T04:28:45.563Z,19.09
2022-07-26T04:31:12.130Z,18.73
2022-07-26T04:33:38.677Z,18.87
2022-07-26T04:36:05.614Z,18.95
2022-07-26T04:38:32.224Z,18.99
2022-07-26T04:40:58.725Z,19.13
2022-07-26T04:43:25.717Z,19.31
2022-07-26T04:45:52.821Z,19.51
2022-07-26T04:48:19.525Z,19.64
2022-07-26T04:50:46.335Z,19.38
2022-07-26T04:53:13.325Z,19.35
2022-07-26T04:55:40.221Z,19.26
2022-07-26T04:58:06.999Z,19.35
2022-07-26T05:00:35.019Z,19.46
2022-07-26T05:03:13.366Z,19.49
2022-07-26T05:05:39.938Z,19.40
2022-07-26T05:08:06.463Z,19.31
2022-07-26T05:10:37.967Z,19.06
2022-07-26T05:13:05.546Z,19.23
2022-07-26T05:15:35.436Z,19.28
2022-07-26T05:18:08.917Z,19.27
2022-07-26T05:20:39.245Z,19.22
2022-07-26T05:23:05.972Z,19.36
2022-07-26T05:25:32.744Z,19.91
2022-07-26T05:27:59.259Z,20.34
2022-07-26T05:30:25.827Z,20.47
2022-07-26T05:32:52.383Z,20.75
2022-07-26T05:35:18.923Z,21.00
2022-07-26T05:38:00.567Z,21.30
2022-07-26T05:40:27.519Z,21.53
2022-07-26T05:42:54.372Z,21.50
2022-07-26T05:45:21.007Z,21.78
2022-07-26T05:47:50.730Z,21.95
2022-07-26T05:50:17.584Z,22.25
2022-07-26T05:52:44.082Z,22.35
2022-07-26T05:55:10.560Z,22.20
2022-07-26T05:57:37.222Z,21.88
2022-07-26T06:00:04.745Z,21.26
2022-07-26T06:02:32.544Z,21.13
2022-07-26T06:04:59.060Z,20.86
2022-07-26T06:07:25.609Z,20.76
2022-07-26T06:09:52.105Z,21.73
2022-07-26T06:12:18.560Z,21.19
2022-07-26T06:19:09.611Z,22.08
2022-07-26T06:25:17.124Z,22.58
2022-07-26T06:27:43.695Z,22.30
2022-07-26T06:30:10.686Z,22.00
2022-07-26T06:32:37.174Z,21.99
2022-07-26T06:35:03.895Z,21.97
2022-07-26T06:37:30.389Z,21.71
2022-07-26T06:39:56.855Z,21.54
2022-07-26T06:42:23.718Z,21.44
2022-07-26T06:44:50.151Z,21.77
2022-07-26T07:09:47.437Z,23.53
2022-07-26T07:12:15.336Z,22.44
2022-07-26T07:14:44.593Z,23.53
2022-07-26T07:17:13.221Z,23.21
2022-07-26T07:19:40.569Z,23.56
2022-07-26T07:22:11.425Z,23.39
2022-07-26T07:24:38.294Z,23.22
2022-07-26T07:27:05.475Z,23.35
2022-07-26T07:29:33.430Z,23.18
2022-07-26T07:32:00.254Z,23.30
2022-07-26T07:34:30.412Z,23.22
2022-07-26T07:36:57.515Z,22.62
2022-07-26T07:39:34.468Z,23.12
2022-07-26T07:42:01.749Z,23.40
2022-07-26T07:44:28.265Z,23.83
2022-07-26T07:46:54.813Z,23.87
2022-07-26T07:49:22.312Z,24.10
2022-07-26T07:51:49.129Z,24.19
2022-07-26T07:54:16.112Z,23.68
2022-07-26T07:56:43.263Z,23.14
2022-07-26T07:59:10.475Z,23.67
2022-07-26T08:01:39.427Z,23.52
2022-07-26T08:04:08.605Z,23.32
2022-07-26T08:06:35.479Z,22.95
2022-07-26T08:09:03.894Z,23.15
2022-07-26T08:11:33.904Z,23.22
2022-07-26T08:14:01.352Z,23.47
2022-07-26T08:16:27.909Z,23.41
2022-07-26T08:18:57.848Z,23.42
2022-07-26T08:21:26.396Z,23.28
2022-07-26T08:23:55.373Z,23.96
2022-07-26T08:26:21.811Z,23.20
2022-07-26T08:28:51.171Z,23.21
2022-07-26T08:31:27.744Z,23.06
2022-07-26T08:33:54.322Z,23.26
2022-07-26T08:36:20.799Z,23.00
2022-07-26T08:38:48.022Z,23.36
2022-07-26T08:41:15.304Z,23.81
2022-07-26T08:43:50.601Z,23.79
2022-07-26T08:46:24.369Z,23.75
2022-07-26T08:48:51.658Z,23.57
2022-07-26T08:51:20.277Z,23.34
2022-07-26T08:53:47.688Z,23.40
2022-07-26T08:56:14.267Z,23.52
2022-07-26T08:58:42.070Z,23.87
2022-07-26T09:01:12.835Z,23.85
2022-07-26T09:03:40.590Z,23.55
2022-07-26T09:06:21.630Z,23.79
2022-07-26T09:08:53.008Z,23.18
2022-07-26T09:11:29.526Z,23.82
2022-07-26T09:14:01.267Z,24.35
2022-07-26T09:16:29.068Z,24.64
2022-07-26T09:19:00.411Z,24.94
2022-07-26T09:21:38.772Z,24.93
2022-07-26T09:24:05.802Z,24.99
2022-07-26T09:26:32.252Z,25.30
2022-07-26T09:29:13.718Z,24.93
2022-07-26T09:31:40.579Z,24.81
2022-07-26T09:34:07.903Z,25.12
2022-07-26T09:36:50.192Z,25.54
2022-07-26T09:39:16.625Z,25.55
2022-07-26T09:41:43.106Z,26.12
2022-07-26T09:44:24.433Z,25.57
2022-07-26T09:46:58.613Z,25.88
2022-07-26T09:49:40.911Z,25.77
2022-07-26T09:52:22.793Z,25.14
2022-07-26T09:54:49.633Z,24.80
2022-07-26T09:57:20.321Z,24.49
2022-07-26T09:59:47.330Z,24.83
2022-07-26T10:02:14.375Z,25.00
2022-07-26T10:04:44.385Z,25.08
2022-07-26T10:07:11.035Z,25.29
2022-07-26T10:09:53.100Z,25.21
2022-07-26T10:12:20.911Z,25.51
2022-07-26T10:14:49.394Z,25.32
2022-07-26T10:17:34.911Z,25.17
2022-07-26T10:20:16.828Z,24.99
2022-07-26T10:22:50.636Z,25.15
2022-07-26T10:25:17.177Z,25.11
2022-07-26T10:27:47.770Z,25.56
2022-07-26T10:30:17.311Z,24.95
2022-07-26T10:33:07.579Z,25.35
2022-07-26T10:35:43.736Z,25.13
2022-07-26T10:38:26.149Z,24.93
2022-07-26T10:40:55.607Z,25.01
2022-07-26T10:46:18.527Z,25.08
2022-07-26T10:49:06.343Z,25.22
2022-07-26T10:51:35.364Z,25.37
2022-07-26T10:54:08.809Z,25.43
2022-07-26T10:56:35.965Z,25.53
2022-07-26T10:59:03.728Z,25.27
2022-07-26T11:01:38.581Z,25.45
2022-07-26T11:04:06.975Z,25.08
2022-07-26T11:06:33.579Z,25.36
2022-07-26T11:09:09.891Z,25.49
2022-07-26T11:11:36.364Z,25.22
2022-07-26T11:14:12.508Z,24.78
2022-07-26T11:16:44.881Z,24.82
2022-07-26T11:19:20.210Z,24.81
2022-07-26T11:21:53.114Z,24.94
2022-07-26T11:24:22.793Z,24.90
2022-07-26T11:26:49.405Z,24.46
2022-07-26T11:29:37.306Z,24.67
2022-07-26T11:32:18.668Z,24.57
2022-07-26T11:34:46.146Z,24.76
2022-07-26T11:37:13.018Z,24.75
2022-07-26T11:39:39.521Z,24.88
2022-07-26T11:42:07.574Z,24.87
2022-07-26T11:44:34.236Z,24.94
2022-07-26T11:47:14.063Z,25.00
2022-07-26T11:49:59.701Z,25.06
2022-07-26T11:52:32.038Z,25.03
2022-07-26T11:54:59.334Z,25.08
2022-07-26T11:57:32.822Z,24.99
2022-07-26T12:00:00.640Z,25.06
2022-07-26T12:02:28.584Z,24.98
2022-07-26T12:05:17.033Z,25.11
2022-07-26T12:08:07.061Z,25.01
2022-07-26T12:10:33.925Z,25.09
2022-07-26T12:13:14.821Z,25.22
2022-07-26T12:15:53.062Z,25.19
2022-07-26T12:18:28.096Z,24.96
2022-07-26T12:21:04.083Z,25.10
2022-07-26T12:23:41.965Z,25.23
2022-07-26T12:26:25.425Z,25.23
2022-07-26T12:28:52.536Z,25.43
2022-07-26T12:31:30.632Z,25.39
2022-07-26T12:33:57.836Z,25.56
2022-07-26T12:36:27.471Z,25.65
2022-07-26T12:38:56.051Z,25.60
2022-07-26T12:41:36.583Z,25.66
2022-07-26T12:44:05.292Z,25.33
2022-07-26T12:46:33.477Z,25.43
2022-07-26T12:49:00.872Z,25.62
2022-07-26T12:51:27.847Z,25.66
2022-07-26T12:53:54.502Z,25.65
2022-07-26T12:56:20.946Z,25.51
2022-07-26T12:58:47.469Z,25.51
2022-07-26T13:01:14.019Z,25.61
2022-07-26T13:03:40.544Z,25.43
2022-07-26T13:06:07.208Z,25.64
2022-07-26T13:08:33.738Z,25.71
2022-07-26T13:11:00.355Z,25.45
2022-07-26T13:13:26.906Z,25.54
2022-07-26T13:15:53.350Z,25.52
2022-07-26T13:18:19.800Z,25.81
2022-07-26T13:20:46.327Z,25.72
2022-07-26T13:23:13.800Z,25.67
2022-07-26T13:25:43.060Z,25.90
2022-07-26T13:28:09.729Z,26.07
2022-07-26T13:30:38.235Z,26.06
2022-07-26T13:33:05.050Z,26.26
2022-07-26T13:35:31.613Z,26.12
2022-07-26T13:37:58.070Z,26.30
2022-07-26T13:40:30.695Z,26.41
2022-07-26T13:42:57.918Z,26.45
2022-07-26T13:45:24.362Z,26.14
2022-07-26T13:47:55.833Z,26.02
2022-07-26T13:50:22.647Z,26.33
2022-07-26T13:52:49.134Z,26.44
2022-07-26T13:55:15.733Z,26.57
2022-07-26T13:57:53.245Z,26.85
2022-07-26T14:00:24.364Z,27.33
2022-07-26T14:02:50.977Z,27.16
2022-07-26T14:05:18.325Z,26.77
2022-07-26T14:07:44.895Z,26.63
2022-07-26T14:10:11.579Z,26.62
2022-07-26T14:12:38.295Z,26.68
2022-07-26T14:15:11.230Z,27.00
2022-07-26T14:17:39.882Z,26.96
2022-07-26T14:20:06.986Z,26.99
2022-07-26T14:22:33.519Z,26.94
2022-07-26T14:25:00.048Z,26.85
2022-07-26T14:27:26.558Z,26.85
2022-07-26T14:29:53.099Z,26.84
2022-07-26T14:32:22.185Z,26.76
2022-07-26T14:34:49.331Z,27.01
2022-07-26T14:37:42.402Z,27.24
2022-07-26T14:40:03.934Z,27.21
2022-07-26T14:42:30.429Z,26.97
2022-07-26T14:44:56.945Z,26.81
2022-07-26T14:47:23.626Z,26.99
2022-07-26T14:49:50.295Z,26.67
2022-07-26T14:52:16.874Z,26.84
2022-07-26T14:54:43.454Z,26.13
2022-07-26T14:57:09.968Z,26.37
2022-07-26T14:59:36.408Z,26.51
2022-07-26T15:02:05.826Z,26.75
2022-07-26T15:04:32.614Z,26.69
2022-07-26T15:06:59.597Z,26.63
2022-07-26T15:09:26.136Z,26.66
2022-07-26T15:11:53.022Z,26.36
2022-07-26T15:14:19.609Z,26.49
2022-07-26T15:16:46.261Z,26.45
2022-07-26T15:19:12.835Z,26.76
2022-07-26T15:21:39.297Z,26.91
2022-07-26T15:24:06.292Z,26.25
2022-07-26T15:26:32.742Z,26.69
2022-07-26T15:28:59.237Z,26.88
2022-07-26T15:31:37.023Z,26.72
2022-07-26T15:34:07.279Z,26.33
2022-07-26T15:36:34.284Z,26.48
2022-07-26T15:39:15.561Z,26.48
2022-07-26T15:41:43.584Z,26.56
2022-07-26T15:44:10.955Z,26.50
2022-07-26T15:46:38.988Z,26.59
2022-07-26T15:49:07.347Z,26.45
2022-07-26T15:51:34.058Z,26.28
2022-07-26T15:54:02.264Z,26.41
2022-07-26T15:56:28.785Z,26.51
2022-07-26T15:58:55.222Z,26.52
2022-07-26T16:01:21.803Z,26.37
2022-07-26T16:03:48.412Z,26.50
2022-07-26T16:06:14.943Z,26.33
2022-07-26T16:08:58.913Z,26.48
2022-07-26T16:11:31.353Z,26.39
2022-07-26T16:14:01.421Z,26.38
2022-07-26T16:16:29.809Z,26.32
2022-07-26T16:18:56.571Z,26.32
2022-07-26T16:21:23.046Z,26.40
2022-07-26T16:23:52.000Z,26.47
2022-07-26T16:26:19.034Z,26.38
2022-07-26T16:28:45.527Z,26.39
2022-07-26T16:31:12.289Z,26.37
2022-07-26T16:33:45.798Z,26.21
2022-07-26T16:36:13.361Z,26.28
2022-07-26T16:38:40.079Z,26.03
2022-07-26T16:41:06.536Z,25.82
2022-07-26T16:43:33.030Z,25.79
2022-07-26T16:45:59.545Z,25.78
2022-07-26T16:48:26.046Z,25.59
2022-07-26T16:50:52.551Z,25.76
2022-07-26T16:53:19.034Z,25.91
2022-07-26T16:55:47.028Z,25.84
2022-07-26T16:58:13.486Z,25.79
2022-07-26T17:00:40.046Z,25.87
2022-07-26T17:03:06.627Z,25.76
2022-07-26T17:05:33.069Z,25.73
2022-07-26T17:07:59.675Z,25.78
2022-07-26T17:10:26.466Z,25.53
2022-07-26T17:12:52.938Z,25.67
2022-07-26T17:15:19.517Z,25.62
2022-07-26T17:17:48.852Z,25.58
2022-07-26T17:20:16.382Z,25.63
2022-07-26T17:22:42.930Z,25.51
2022-07-26T17:25:09.888Z,25.53
2022-07-26T17:27:36.451Z,25.56
2022-07-26T17:30:07.152Z,25.56
2022-07-26T17:32:34.339Z,25.49
2022-07-26T17:35:01.181Z,25.46
2022-07-26T17:37:27.815Z,25.42
2022-07-26T17:39:55.369Z,25.33
2022-07-26T17:42:24.110Z,25.36
2022-07-26T17:44:51.142Z,25.29
2022-07-26T17:47:28.931Z,25.30
2022-07-26T17:52:48.016Z,25.39
2022-07-26T17:55:14.690Z,25.50
2022-07-26T17:57:42.046Z,25.53
2022-07-26T18:00:09.226Z,25.58
2022-07-26T18:02:35.712Z,25.65
2022-07-26T18:05:03.183Z,25.53
2022-07-26T18:07:29.886Z,25.49
2022-07-26T18:09:56.407Z,25.39
2022-07-26T18:12:22.984Z,25.33
2022-07-26T18:14:49.511Z,25.12
2022-07-26T18:17:16.056Z,25.23
2022-07-26T18:19:42.534Z,25.17
2022-07-26T18:22:08.991Z,24.97
2022-07-26T18:24:35.496Z,24.93
2022-07-26T18:27:02.005Z,24.86
2022-07-26T18:29:28.525Z,24.74
2022-07-26T18:31:55.164Z,24.74
2022-07-26T18:34:21.677Z,24.63
2022-07-26T18:36:48.184Z,24.64
2022-07-26T18:39:14.846Z,24.52
2022-07-26T18:41:41.448Z,24.48
2022-07-26T18:44:07.925Z,24.38
2022-07-26T18:46:34.576Z,24.25
2022-07-26T18:49:01.305Z,24.27
2022-07-26T18:51:28.910Z,24.24
2022-07-26T18:53:55.731Z,24.14
2022-07-26T18:56:22.304Z,23.95
2022-07-26T18:58:48.953Z,24.05
2022-07-26T19:01:15.584Z,23.94
2022-07-26T19:03:42.084Z,23.96
2022-07-26T19:06:09.045Z,23.97
2022-07-26T19:08:35.552Z,23.79
2022-07-26T19:11:02.022Z,23.74
2022-07-26T19:13:28.494Z,23.74
2022-07-26T19:15:56.121Z,23.81
2022-07-26T19:18:22.608Z,23.72
2022-07-26T19:20:49.147Z,23.63
2022-07-26T19:23:15.699Z,23.47
2022-07-26T19:25:42.256Z,23.39
2022-07-26T19:28:09.299Z,23.45
2022-07-26T19:30:36.473Z,23.35
2022-07-26T19:33:03.154Z,23.35
2022-07-26T19:35:29.895Z,23.34
2022-07-26T19:37:56.461Z,23.28
2022-07-26T19:40:23.251Z,23.24
2022-07-26T19:42:49.894Z,23.16
2022-07-26T19:45:16.562Z,23.12
2022-07-26T19:47:43.248Z,22.94
2022-07-26T19:50:10.084Z,22.88
2022-07-26T19:52:36.687Z,22.93
2022-07-26T19:55:06.932Z,22.87
2022-07-26T19:57:33.404Z,22.92
2022-07-26T20:00:01.796Z,22.88
2022-07-26T20:02:28.315Z,22.81
2022-07-26T20:04:54.913Z,22.53
2022-07-26T20:07:21.503Z,22.59
2022-07-26T20:09:51.719Z,22.54
2022-07-26T20:12:19.834Z,22.47
2022-07-26T20:14:46.998Z,22.29
2022-07-26T20:17:14.214Z,22.36
2022-07-26T20:19:40.838Z,22.24
2022-07-26T20:22:07.393Z,22.18
2022-07-26T20:24:34.102Z,22.19
2022-07-26T20:27:00.663Z,22.21
2022-07-26T20:29:27.389Z,22.09
2022-07-26T20:31:53.909Z,21.61
2022-07-26T20:34:20.411Z,21.47
2022-07-26T20:36:47.190Z,21.20
2022-07-26T20:39:14.215Z,21.20
2022-07-26T20:41:41.357Z,21.01
2022-07-26T20:44:07.878Z,21.00
2022-07-26T20:46:39.689Z,21.05
2022-07-26T20:49:07.183Z,21.05
2022-07-26T20:51:33.804Z,20.90
2022-07-26T20:54:00.383Z,20.78
2022-07-26T20:56:27.411Z,20.78
2022-07-26T20:58:55.592Z,20.56
2022-07-26T21:01:22.320Z,20.60
2022-07-26T21:03:48.938Z,20.73
2022-07-26T21:06:15.462Z,20.36
2022-07-26T21:08:41.992Z,20.17
2022-07-26T21:11:08.480Z,20.22
2022-07-26T21:13:35.009Z,20.18
2022-07-26T21:16:01.579Z,20.29
2022-07-26T21:18:29.869Z,20.26
2022-07-26T21:20:57.407Z,20.23
2022-07-26T21:23:24.008Z,19.95
2022-07-26T21:25:53.570Z,19.85
2022-07-26T21:28:27.045Z,19.88
2022-07-26T21:30:54.113Z,19.95
2022-07-26T21:33:20.558Z,19.39
2022-07-26T21:35:47.213Z,19.62
2022-07-26T21:38:13.795Z,19.62
2022-07-26T21:40:40.461Z,19.66
2022-07-26T21:43:07.055Z,19.72
2022-07-26T21:45:33.656Z,19.76
2022-07-26T21:48:00.228Z,19.80
2022-07-26T21:50:26.869Z,19.65
2022-07-26T21:52:53.498Z,19.62
2022-07-26T21:55:19.966Z,19.56
2022-07-26T21:57:46.520Z,19.55
2022-07-26T22:00:17.329Z,19.56
2022-07-26T22:02:43.912Z,19.78
2022-07-26T22:05:29.689Z,19.94
2022-07-26T22:07:56.188Z,19.82
2022-07-26T22:10:22.930Z,19.75
2022-07-26T22:12:49.432Z,19.81
2022-07-26T22:15:15.990Z,19.84
2022-07-26T22:17:42.467Z,19.57
2022-07-26T22:20:09.821Z,19.62
2022-07-26T22:22:38.191Z,19.64
2022-07-26T22:25:05.650Z,19.76
2022-07-26T22:27:32.319Z,19.80
2022-07-26T22:29:58.867Z,19.85
2022-07-26T22:32:26.347Z,19.86
2022-07-26T22:34:52.961Z,19.93
2022-07-26T22:37:19.429Z,19.89
2022-07-26T22:39:45.961Z,19.97
2022-07-26T22:42:15.681Z,19.95
2022-07-26T22:44:42.720Z,19.85
2022-07-26T22:47:09.463Z,19.90
2022-07-26T22:49:36.029Z,19.82
2022-07-26T22:52:02.593Z,19.98
2022-07-26T22:54:29.054Z,20.02
2022-07-26T22:56:55.517Z,19.97
2022-07-26T22:59:22.683Z,20.01
2022-07-26T23:01:49.222Z,20.03
2022-07-26T23:04:15.791Z,19.99
2022-07-26T23:06:42.858Z,20.01
2022-07-26T23:09:11.460Z,20.17
2022-07-26T23:11:38.565Z,20.23
2022-07-26T23:14:05.091Z,20.28
2022-07-26T23:16:31.638Z,20.26
2022-07-26T23:18:58.211Z,20.33
2022-07-26T23:21:24.736Z,20.30
2022-07-26T23:23:53.978Z,20.39
2022-07-26T23:26:20.489Z,20.03
2022-07-26T23:28:47.017Z,19.96
2022-07-26T23:31:14.250Z,20.16
2022-07-26T23:33:50.433Z,20.04
2022-07-26T23:36:20.359Z,20.17
2022-07-26T23:38:46.983Z,20.21
2022-07-26T23:41:13.474Z,20.16
2022-07-26T23:43:39.931Z,20.08
2022-07-26T23:46:06.408Z,20.11
2022-07-26T23:48:32.888Z,20.12
2022-07-26T23:50:59.566Z,20.21
2022-07-26T23:53:26.791Z,20.27
2022-07-26T23:55:54.034Z,20.15
2022-07-26T23:58:20.738Z,20.27
